sensor_id;sensor_type;location;lat;lon;timestamp;pressure;altitude;pressure_sealevel;temperature;humidity
4022;BME280;2025;48.260;16.432;2022-09-29T00:00:52;98433.66;;;11.86;100.00
4022;BME280;2025;48.260;16.432;2022-09-29T00:03:21;98431.91;;;11.87;100.00
4022;BME280;2025;48.260;16.432;2022-09-29T00:05:52;98429.19;;;11.93;100.00
4022;BME280;2025;48.260;16.432;2022-09-29T00:08:20;98447.69;;;11.85;100.00
4022;BME280;2025;48.260;16.432;2022-09-29T00:10:47;98440.72;;;11.84;100.00
4022;BME280;2025;48.260;16.432;2022-09-29T00:13:14;98443.31;;;11.86;100.00
4022;BME280;2025;48.260;16.432;2022-09-29T00:15:42;98439.06;;;11.79;100.00
4022;BME280;2025;48.260;16.432;2022-09-29T00:18:08;98442.50;;;11.81;100.00
4022;BME280;2025;48.260;16.432;2022-09-29T00:20:37;98434.69;;;11.78;100.00
4022;BME280;2025;48.260;16.432;2022-09-29T00:23:05;98433.84;;;11.74;100.00
4022;BME280;2025;48.260;16.432;2022-09-29T00:25:32;98447.09;;;11.67;100.00
4022;BME280;2025;48.260;16.432;2022-09-29T00:27:59;98451.47;;;11.66;100.00
4022;BME280;2025;48.260;16.432;2022-09-29T00:30:27;98448.91;;;11.63;100.00
4022;BME280;2025;48.260;16.432;2022-09-29T00:32:54;98447.09;;;11.67;100.00
4022;BME280;2025;48.260;16.432;2022-09-29T00:35:20;98434.94;;;11.63;100.00
4022;BME280;2025;48.260;16.432;2022-09-29T00:37:47;98438.47;;;11.60;100.00
4022;BME280;2025;48.260;16.432;2022-09-29T00:40:16;98432.31;;;11.63;100.00
4022;BME280;2025;48.260;16.432;2022-09-29T00:42:43;98435.78;;;11.63;100.00
4022;BME280;2025;48.260;16.432;2022-09-29T00:45:16;98431.47;;;11.61;100.00
4022;BME280;2025;48.260;16.432;2022-09-29T00:47:48;98439.28;;;11.64;100.00
4022;BME280;2025;48.260;16.432;2022-09-29T00:50:20;98440.22;;;11.60;100.00
4022;BME280;2025;48.260;16.432;2022-09-29T00:52:51;98438.50;;;11.57;100.00
4022;BME280;2025;48.260;16.432;2022-09-29T00:55:23;98438.53;;;11.55;100.00
4022;BME280;2025;48.260;16.432;2022-09-29T00:57:55;98439.34;;;11.59;100.00
4022;BME280;2025;48.260;16.432;2022-09-29T01:00:24;98439.41;;;11.56;100.00
4022;BME280;2025;48.260;16.432;2022-09-29T01:02:54;98442.19;;;11.47;100.00
4022;BME280;2025;48.260;16.432;2022-09-29T01:05:26;98445.84;;;11.35;100.00
4022;BME280;2025;48.260;16.432;2022-09-29T01:07:57;98434.50;;;11.35;100.00
4022;BME280;2025;48.260;16.432;2022-09-29T01:10:29;98428.63;;;11.19;100.00
4022;BME280;2025;48.260;16.432;2022-09-29T01:12:57;98440.06;;;11.13;100.00
4022;BME280;2025;48.260;16.432;2022-09-29T01:15:24;98436.63;;;11.10;100.00
4022;BME280;2025;48.260;16.432;2022-09-29T01:17:54;98432.44;;;10.97;100.00
4022;BME280;2025;48.260;16.432;2022-09-29T01:20:22;98420.16;;;11.00;100.00
4022;BME280;2025;48.260;16.432;2022-09-29T01:23:10;98421.97;;;10.97;100.00
4022;BME280;2025;48.260;16.432;2022-09-29T01:31:43;98432.50;;;10.92;100.00
4022;BME280;2025;48.260;16.432;2022-09-29T01:34:18;98428.06;;;10.97;100.00
4022;BME280;2025;48.260;16.432;2022-09-29T01:36:57;98428.03;;;11.00;100.00
4022;BME280;2025;48.260;16.432;2022-09-29T01:39:31;98424.53;;;11.01;100.00
4022;BME280;2025;48.260;16.432;2022-09-29T01:42:03;98428.97;;;10.96;100.00
4022;BME280;2025;48.260;16.432;2022-09-29T01:44:36;98436.84;;;10.95;100.00
4022;BME280;2025;48.260;16.432;2022-09-29T01:47:10;98429.81;;;10.98;100.00
4022;BME280;2025;48.260;16.432;2022-09-29T01:49:41;98430.63;;;11.02;100.00
4022;BME280;2025;48.260;16.432;2022-09-29T01:52:12;98429.81;;;10.98;100.00
4022;BME280;2025;48.260;16.432;2022-09-29T01:54:43;98432.44;;;10.98;100.00
4022;BME280;2025;48.260;16.432;2022-09-29T01:57:13;98429.03;;;10.91;100.00
4022;BME280;2025;48.260;16.432;2022-09-29T01:59:44;98422.06;;;10.90;100.00
4022;BME280;2025;48.260;16.432;2022-09-29T02:02:21;98429.81;;;10.97;100.00
4022;BME280;2025;48.260;16.432;2022-09-29T02:04:53;98430.63;;;11.02;100.00
4022;BME280;2025;48.260;16.432;2022-09-29T02:07:26;98425.38;;;11.02;100.00
4022;BME280;2025;48.260;16.432;2022-09-29T02:09:59;98438.50;;;11.00;100.00
4022;BME280;2025;48.260;16.432;2022-09-29T02:12:31;98437.53;;;11.07;100.00
4022;BME280;2025;48.260;16.432;2022-09-29T02:15:02;98437.56;;;11.06;100.00
4022;BME280;2025;48.260;16.432;2022-09-29T02:17:35;98433.13;;;11.11;100.00
4022;BME280;2025;48.260;16.432;2022-09-29T02:20:03;98430.47;;;11.12;100.00
4022;BME280;2025;48.260;16.432;2022-09-29T02:22:31;98427.94;;;11.06;100.00
4022;BME280;2025;48.260;16.432;2022-09-29T02:24:58;98428.81;;;11.07;100.00
4022;BME280;2025;48.260;16.432;2022-09-29T02:27:26;98424.50;;;11.03;100.00
4022;BME280;2025;48.260;16.432;2022-09-29T02:29:54;98424.47;;;11.04;100.00
4022;BME280;2025;48.260;16.432;2022-09-29T02:32:23;98423.69;;;10.99;100.00
4022;BME280;2025;48.260;16.432;2022-09-29T02:34:52;98433.22;;;11.03;100.00
4022;BME280;2025;48.260;16.432;2022-09-29T02:37:34;98430.63;;;11.02;100.00
4022;BME280;2025;48.260;16.432;2022-09-29T02:40:14;98423.69;;;10.98;100.00
4022;BME280;2025;48.260;16.432;2022-09-29T02:42:52;98409.75;;;10.96;100.00
4022;BME280;2025;48.260;16.432;2022-09-29T02:45:29;98420.09;;;11.05;100.00
4022;BME280;2025;48.260;16.432;2022-09-29T02:48:09;98423.63;;;11.04;100.00
4022;BME280;2025;48.260;16.432;2022-09-29T02:50:47;98420.09;;;11.05;100.00
4022;BME280;2025;48.260;16.432;2022-09-29T02:53:28;98421.00;;;11.02;100.00
4022;BME280;2025;48.260;16.432;2022-09-29T02:56:02;98421.75;;;11.12;100.00
4022;BME280;2025;48.260;16.432;2022-09-29T02:58:34;98430.47;;;11.12;100.00
4022;BME280;2025;48.260;16.432;2022-09-29T03:01:03;98428.69;;;11.16;100.00
4022;BME280;2025;48.260;16.432;2022-09-29T03:03:31;98430.44;;;11.15;100.00
4022;BME280;2025;48.260;16.432;2022-09-29T03:06:00;98433.97;;;11.13;100.00
4022;BME280;2025;48.260;16.432;2022-09-29T03:08:29;98433.91;;;11.16;100.00
4022;BME280;2025;48.260;16.432;2022-09-29T03:10:56;98447.03;;;11.14;100.00
4022;BME280;2025;48.260;16.432;2022-09-29T03:13:23;98454.84;;;11.19;100.00
4022;BME280;2025;48.260;16.432;2022-09-29T03:15:50;98450.50;;;11.18;100.00
4022;BME280;2025;48.260;16.432;2022-09-29T03:18:17;98447.97;;;11.12;100.00
4022;BME280;2025;48.260;16.432;2022-09-29T03:20:47;98437.47;;;11.12;100.00
4022;BME280;2025;48.260;16.432;2022-09-29T03:23:15;98436.50;;;11.17;100.00
4022;BME280;2025;48.260;16.432;2022-09-29T03:25:42;98441.81;;;11.14;100.00
4022;BME280;2025;48.260;16.432;2022-09-29T03:28:09;98444.44;;;11.13;100.00
4022;BME280;2025;48.260;16.432;2022-09-29T03:30:36;98451.41;;;11.14;100.00
4022;BME280;2025;48.260;16.432;2022-09-29T03:33:03;98454.09;;;11.09;100.00
4022;BME280;2025;48.260;16.432;2022-09-29T03:35:30;98452.28;;;11.14;100.00
4022;BME280;2025;48.260;16.432;2022-09-29T03:37:57;98458.41;;;11.13;100.00
4022;BME280;2025;48.260;16.432;2022-09-29T03:40:26;98465.41;;;11.13;100.00
4022;BME280;2025;48.260;16.432;2022-09-29T03:42:53;98460.16;;;11.13;100.00
4022;BME280;2025;48.260;16.432;2022-09-29T03:45:20;98459.28;;;11.14;100.00
4022;BME280;2025;48.260;16.432;2022-09-29T03:47:47;98453.25;;;11.09;100.00
4022;BME280;2025;48.260;16.432;2022-09-29T03:50:14;98453.22;;;11.10;100.00
4022;BME280;2025;48.260;16.432;2022-09-29T03:52:41;98468.94;;;11.10;100.00
4022;BME280;2025;48.260;16.432;2022-09-29T03:55:08;98462.88;;;11.08;100.00
4022;BME280;2025;48.260;16.432;2022-09-29T03:57:37;98457.63;;;11.08;100.00
4022;BME280;2025;48.260;16.432;2022-09-29T04:00:04;98455.91;;;11.06;100.00
4022;BME280;2025;48.260;16.432;2022-09-29T04:02:31;98455.03;;;11.07;100.00
4022;BME280;2025;48.260;16.432;2022-09-29T04:05:00;98452.41;;;11.05;100.00
4022;BME280;2025;48.260;16.432;2022-09-29T04:07:27;98447.41;;;10.88;100.00
4022;BME280;2025;48.260;16.432;2022-09-29T04:09:54;98451.63;;;10.99;100.00
4022;BME280;2025;48.260;16.432;2022-09-29T04:12:21;98455.16;;;10.98;100.00
4022;BME280;2025;48.260;16.432;2022-09-29T04:14:49;98454.25;;;10.99;100.00
4022;BME280;2025;48.260;16.432;2022-09-29T04:17:16;98448.16;;;10.97;100.00
4022;BME280;2025;48.260;16.432;2022-09-29T04:19:43;98443.00;;;10.90;100.00
4022;BME280;2025;48.260;16.432;2022-09-29T04:22:10;98443.09;;;10.84;100.00
4022;BME280;2025;48.260;16.432;2022-09-29T04:24:37;98443.97;;;10.85;100.00
4022;BME280;2025;48.260;16.432;2022-09-29T04:27:04;98447.47;;;10.84;100.00
4022;BME280;2025;48.260;16.432;2022-09-29T04:29:31;98450.13;;;10.82;100.00
4022;BME280;2025;48.260;16.432;2022-09-29T04:32:00;98451.91;;;10.79;100.00
4022;BME280;2025;48.260;16.432;2022-09-29T04:34:27;98450.19;;;10.76;100.00
4022;BME280;2025;48.260;16.432;2022-09-29T04:36:54;98447.56;;;10.78;100.00
4022;BME280;2025;48.260;16.432;2022-09-29T04:39:21;98446.78;;;10.71;100.00
4022;BME280;2025;48.260;16.432;2022-09-29T04:41:48;98440.63;;;10.72;100.00
4022;BME280;2025;48.260;16.432;2022-09-29T04:44:15;98439.00;;;10.64;100.00
4022;BME280;2025;48.260;16.432;2022-09-29T04:46:44;98441.59;;;10.67;100.00
4022;BME280;2025;48.260;16.432;2022-09-29T04:49:13;98442.53;;;10.61;100.00
4022;BME280;2025;48.260;16.432;2022-09-29T04:51:40;98435.63;;;10.55;100.00
4022;BME280;2025;48.260;16.432;2022-09-29T04:54:07;98437.34;;;10.58;100.00
4022;BME280;2025;48.260;16.432;2022-09-29T04:56:34;98433.91;;;10.51;100.00
4022;BME280;2025;48.260;16.432;2022-09-29T04:59:01;98441.00;;;10.43;100.00
4022;BME280;2025;48.260;16.432;2022-09-29T05:01:27;98441.78;;;10.50;100.00
4022;BME280;2025;48.260;16.432;2022-09-29T05:03:55;98447.88;;;10.53;100.00
4022;BME280;2025;48.260;16.432;2022-09-29T05:06:23;98442.56;;;10.59;100.00
4022;BME280;2025;48.260;16.432;2022-09-29T05:08:50;98455.56;;;10.67;100.00
4022;BME280;2025;48.260;16.432;2022-09-29T05:11:17;98453.75;;;10.72;100.00
4022;BME280;2025;48.260;16.432;2022-09-29T05:13:47;98448.38;;;10.81;100.00
4022;BME280;2025;48.260;16.432;2022-09-29T05:16:14;98457.91;;;10.87;100.00
4022;BME280;2025;48.260;16.432;2022-09-29T05:18:41;98463.09;;;10.91;100.00
4022;BME280;2025;48.260;16.432;2022-09-29T05:21:08;98468.22;;;10.99;100.00
4022;BME280;2025;48.260;16.432;2022-09-29T05:23:37;98469.09;;;11.00;100.00
4022;BME280;2025;48.260;16.432;2022-09-29T05:26:06;98469.06;;;11.03;100.00
4022;BME280;2025;48.260;16.432;2022-09-29T05:28:33;98472.41;;;11.12;100.00
4022;BME280;2025;48.260;16.432;2022-09-29T05:31:01;98475.94;;;11.11;100.00
4022;BME280;2025;48.260;16.432;2022-09-29T05:33:28;98467.16;;;11.12;100.00
4022;BME280;2025;48.260;16.432;2022-09-29T05:35:55;98459.34;;;11.11;100.00
4022;BME280;2025;48.260;16.432;2022-09-29T05:38:22;98463.69;;;11.12;100.00
4022;BME280;2025;48.260;16.432;2022-09-29T05:40:51;98476.84;;;11.09;100.00
4022;BME280;2025;48.260;16.432;2022-09-29T05:43:18;98476.69;;;11.19;100.00
4022;BME280;2025;48.260;16.432;2022-09-29T05:45:45;98477.41;;;11.29;100.00
4022;BME280;2025;48.260;16.432;2022-09-29T05:48:12;98485.41;;;11.20;100.00
4022;BME280;2025;48.260;16.432;2022-09-29T05:50:39;98497.53;;;11.29;100.00
4022;BME280;2025;48.260;16.432;2022-09-29T05:53:07;98502.91;;;11.19;100.00
4022;BME280;2025;48.260;16.432;2022-09-29T05:55:35;98508.19;;;11.15;100.00
4022;BME280;2025;48.260;16.432;2022-09-29T05:58:04;98507.38;;;11.11;100.00
4022;BME280;2025;48.260;16.432;2022-09-29T06:00:32;98505.72;;;11.06;100.00
4022;BME280;2025;48.260;16.432;2022-09-29T06:03:00;98511.81;;;11.06;100.00
4022;BME280;2025;48.260;16.432;2022-09-29T06:05:27;98503.88;;;11.11;100.00
4022;BME280;2025;48.260;16.432;2022-09-29T06:07:54;98498.56;;;11.17;100.00
4022;BME280;2025;48.260;16.432;2022-09-29T06:10:21;98514.25;;;11.20;100.00
4022;BME280;2025;48.260;16.432;2022-09-29T06:12:48;98504.59;;;11.23;100.00
4022;BME280;2025;48.260;16.432;2022-09-29T06:15:17;98504.53;;;11.27;100.00
4022;BME280;2025;48.260;16.432;2022-09-29T06:17:44;98503.75;;;11.21;100.00
4022;BME280;2025;48.260;16.432;2022-09-29T06:20:11;98513.34;;;11.22;100.00
4022;BME280;2025;48.260;16.432;2022-09-29T06:22:37;98516.13;;;11.10;100.00
4022;BME280;2025;48.260;16.432;2022-09-29T06:25:05;98511.03;;;11.00;100.00
4022;BME280;2025;48.260;16.432;2022-09-29T06:27:33;98495.38;;;10.93;100.00
4022;BME280;2025;48.260;16.432;2022-09-29T06:29:59;98491.09;;;10.88;100.00
4022;BME280;2025;48.260;16.432;2022-09-29T06:32:28;98498.84;;;10.97;100.00
4022;BME280;2025;48.260;16.432;2022-09-29T06:34:55;98484.97;;;10.89;100.00
4022;BME280;2025;48.260;16.432;2022-09-29T06:37:42;98484.91;;;10.93;100.00
4022;BME280;2025;48.260;16.432;2022-09-29T06:40:11;98476.03;;;11.04;100.00
4022;BME280;2025;48.260;16.432;2022-09-29T06:42:38;98461.94;;;11.11;100.00
4022;BME280;2025;48.260;16.432;2022-09-29T06:45:07;98475.78;;;11.22;100.00
4022;BME280;2025;48.260;16.432;2022-09-29T06:47:36;98470.38;;;11.33;100.00
4022;BME280;2025;48.260;16.432;2022-09-29T06:50:04;98482.38;;;11.47;100.00
4022;BME280;2025;48.260;16.432;2022-09-29T06:52:31;98495.56;;;11.43;100.00
4022;BME280;2025;48.260;16.432;2022-09-29T06:54:58;98485.72;;;11.57;100.00
4022;BME280;2025;48.260;16.432;2022-09-29T06:57:25;98487.28;;;11.69;100.00
4022;BME280;2025;48.260;16.432;2022-09-29T06:59:52;98495.91;;;11.77;100.00
4022;BME280;2025;48.260;16.432;2022-09-29T07:02:19;98496.81;;;11.77;100.00
4022;BME280;2025;48.260;16.432;2022-09-29T07:04:47;98494.81;;;11.92;100.00
4022;BME280;2025;48.260;16.432;2022-09-29T07:07:15;98509.75;;;11.88;100.00
4022;BME280;2025;48.260;16.432;2022-09-29T07:09:42;98509.47;;;12.05;100.00
4022;BME280;2025;48.260;16.432;2022-09-29T07:12:09;98501.47;;;12.12;100.00
4022;BME280;2025;48.260;16.432;2022-09-29T07:14:37;98509.59;;;11.97;100.00
4022;BME280;2025;48.260;16.432;2022-09-29T07:17:04;98510.50;;;11.96;100.00
4022;BME280;2025;48.260;16.432;2022-09-29T07:19:31;98509.69;;;11.91;100.00
4022;BME280;2025;48.260;16.432;2022-09-29T07:22:00;98515.78;;;11.93;100.00
4022;BME280;2025;48.260;16.432;2022-09-29T07:24:27;98523.09;;;11.73;100.00
4022;BME280;2025;48.260;16.432;2022-09-29T07:26:54;98523.66;;;11.93;100.00
4022;BME280;2025;48.260;16.432;2022-09-29T07:29:21;98519.22;;;11.98;100.00
4022;BME280;2025;48.260;16.432;2022-09-29T07:31:48;98516.47;;;12.04;100.00
4022;BME280;2025;48.260;16.432;2022-09-29T07:34:17;98533.16;;;12.02;100.00
4022;BME280;2025;48.260;16.432;2022-09-29T07:36:44;98529.50;;;12.10;100.00
4022;BME280;2025;48.260;16.432;2022-09-29T07:39:12;98529.50;;;12.10;100.00
4022;BME280;2025;48.260;16.432;2022-09-29T07:41:39;98540.63;;;12.28;100.00
4022;BME280;2025;48.260;16.432;2022-09-29T07:44:06;98526.13;;;12.53;100.00
4022;BME280;2025;48.260;16.432;2022-09-29T07:46:33;98528.88;;;12.47;100.00
4022;BME280;2025;48.260;16.432;2022-09-29T07:49:00;98543.63;;;12.54;100.00
4022;BME280;2025;48.260;16.432;2022-09-29T07:51:27;98544.75;;;12.41;100.00
4022;BME280;2025;48.260;16.432;2022-09-29T07:53:54;98547.97;;;12.57;100.00
4022;BME280;2025;48.260;16.432;2022-09-29T07:56:23;98552.25;;;12.62;100.00
4022;BME280;2025;48.260;16.432;2022-09-29T07:58:50;98550.53;;;12.60;100.00
4022;BME280;2025;48.260;16.432;2022-09-29T08:01:18;98551.88;;;12.34;100.00
4022;BME280;2025;48.260;16.432;2022-09-29T08:03:49;98561.44;;;12.38;100.00
4022;BME280;2025;48.260;16.432;2022-09-29T08:06:17;98564.59;;;12.57;100.00
4022;BME280;2025;48.260;16.432;2022-09-29T08:08:44;98558.19;;;12.72;100.00
4022;BME280;2025;48.260;16.432;2022-09-29T08:11:13;98566.09;;;12.70;100.00
4022;BME280;2025;48.260;16.432;2022-09-29T08:13:42;98566.16;;;12.67;100.00
4022;BME280;2025;48.260;16.432;2022-09-29T08:16:11;98569.69;;;12.66;100.00
4022;BME280;2025;48.260;16.432;2022-09-29T08:18:38;98576.56;;;12.73;100.00
4022;BME280;2025;48.260;16.432;2022-09-29T08:21:06;98561.66;;;12.74;100.00
4022;BME280;2025;48.260;16.432;2022-09-29T08:23:35;98565.75;;;12.89;100.00
4022;BME280;2025;48.260;16.432;2022-09-29T08:26:04;98564.09;;;12.83;100.00
4022;BME280;2025;48.260;16.432;2022-09-29T08:28:33;98568.09;;;13.02;100.00
4022;BME280;2025;48.260;16.432;2022-09-29T08:31:03;98568.25;;;12.95;100.00
4022;BME280;2025;48.260;16.432;2022-09-29T08:33:31;98570.47;;;13.14;100.00
4022;BME280;2025;48.260;16.432;2022-09-29T08:35:59;98572.25;;;13.14;100.00
4022;BME280;2025;48.260;16.432;2022-09-29T08:38:26;98573.81;;;13.24;100.00
4022;BME280;2025;48.260;16.432;2022-09-29T08:40:55;98574.75;;;13.62;100.00
4022;BME280;2025;48.260;16.432;2022-09-29T08:43:25;98583.22;;;13.76;100.00
4022;BME280;2025;48.260;16.432;2022-09-29T08:45:59;98566.41;;;13.43;100.00
4022;BME280;2025;48.260;16.432;2022-09-29T08:48:31;98577.41;;;13.60;100.00
4022;BME280;2025;48.260;16.432;2022-09-29T08:51:02;98586.25;;;13.58;100.00
4022;BME280;2025;48.260;16.432;2022-09-29T08:53:33;98576.81;;;13.47;100.00
4022;BME280;2025;48.260;16.432;2022-09-29T08:56:03;98577.69;;;13.88;100.00
4022;BME280;2025;48.260;16.432;2022-09-29T08:58:32;98579.66;;;13.77;100.00
4022;BME280;2025;48.260;16.432;2022-09-29T09:01:09;98576.88;;;13.85;100.00
4022;BME280;2025;48.260;16.432;2022-09-29T09:06:58;98587.13;;;13.97;100.00
4022;BME280;2025;48.260;16.432;2022-09-29T09:09:44;98588.97;;;13.93;100.00
4022;BME280;2025;48.260;16.432;2022-09-29T09:12:27;98589.41;;;13.73;100.00
4022;BME280;2025;48.260;16.432;2022-09-29T09:15:13;98595.16;;;13.92;100.00
4022;BME280;2025;48.260;16.432;2022-09-29T09:17:57;98597.06;;;13.84;100.00
4022;BME280;2025;48.260;16.432;2022-09-29T09:20:32;98601.06;;;14.02;100.00
4022;BME280;2025;48.260;16.432;2022-09-29T09:23:06;98584.63;;;13.92;100.00
4022;BME280;2025;48.260;16.432;2022-09-29T09:25:45;98582.81;;;14.30;100.00
4022;BME280;2025;48.260;16.432;2022-09-29T09:28:16;98582.53;;;14.42;100.00
4022;BME280;2025;48.260;16.432;2022-09-29T09:30:48;98595.38;;;14.19;100.00
4022;BME280;2025;48.260;16.432;2022-09-29T09:33:23;98595.47;;;14.51;100.00
4022;BME280;2025;48.260;16.432;2022-09-29T09:35:58;98588.97;;;14.30;100.00
4022;BME280;2025;48.260;16.432;2022-09-29T09:38:38;98596.16;;;14.24;100.00
4022;BME280;2025;48.260;16.432;2022-09-29T09:41:07;98588.16;;;13.91;100.00
4022;BME280;2025;48.260;16.432;2022-09-29T09:43:39;98584.00;;;14.18;100.00
4022;BME280;2025;48.260;16.432;2022-09-29T09:46:14;98591.09;;;14.15;100.00
4022;BME280;2025;48.260;16.432;2022-09-29T09:48:46;98593.78;;;14.13;100.00
4022;BME280;2025;48.260;16.432;2022-09-29T09:51:28;98602.31;;;14.23;100.00
4022;BME280;2025;48.260;16.432;2022-09-29T09:53:58;98601.25;;;14.30;100.00
4022;BME280;2025;48.260;16.432;2022-09-29T09:59:27;98583.66;;;14.98;100.00
4022;BME280;2025;48.260;16.432;2022-09-29T10:01:57;98588.50;;;15.45;100.00
4022;BME280;2025;48.260;16.432;2022-09-29T10:04:24;98578.63;;;15.51;100.00
4022;BME280;2025;48.260;16.432;2022-09-29T10:06:54;98584.81;;;15.81;100.00
4022;BME280;2025;48.260;16.432;2022-09-29T10:09:21;98582.63;;;15.66;100.00
4022;BME280;2025;48.260;16.432;2022-09-29T10:11:48;98580.97;;;15.00;100.00
4022;BME280;2025;48.260;16.432;2022-09-29T10:14:20;98587.22;;;14.97;100.00
4022;BME280;2025;48.260;16.432;2022-09-29T10:16:50;98598.97;;;14.86;100.00
4022;BME280;2025;48.260;16.432;2022-09-29T10:19:21;98594.47;;;15.20;100.00
4022;BME280;2025;48.260;16.432;2022-09-29T10:21:49;98587.66;;;15.13;100.00
4022;BME280;2025;48.260;16.432;2022-09-29T10:24:23;98591.25;;;15.11;100.00
4022;BME280;2025;48.260;16.432;2022-09-29T10:26:54;98588.72;;;15.06;100.00
4022;BME280;2025;48.260;16.432;2022-09-29T10:29:25;98579.63;;;15.78;100.00
4022;BME280;2025;48.260;16.432;2022-09-29T10:32:03;98578.44;;;16.41;100.00
4022;BME280;2025;48.260;16.432;2022-09-29T10:34:32;98574.56;;;16.78;100.00
4022;BME280;2025;48.260;16.432;2022-09-29T10:37:01;98580.72;;;16.52;100.00
4022;BME280;2025;48.260;16.432;2022-09-29T10:39:33;98588.03;;;17.45;100.00
4022;BME280;2025;48.260;16.432;2022-09-29T10:42:15;98586.16;;;16.74;100.00
4022;BME280;2025;48.260;16.432;2022-09-29T10:44:43;98593.34;;;16.17;100.00
4022;BME280;2025;48.260;16.432;2022-09-29T10:47:15;98586.41;;;16.13;100.00
4022;BME280;2025;48.260;16.432;2022-09-29T10:49:42;98584.47;;;17.69;100.00
4022;BME280;2025;48.260;16.432;2022-09-29T10:52:21;98583.09;;;18.68;98.49
4022;BME280;2025;48.260;16.432;2022-09-29T10:54:57;98581.84;;;18.55;79.28
4022;BME280;2025;48.260;16.432;2022-09-29T10:57:26;98585.38;;;18.55;80.99
4022;BME280;2025;48.260;16.432;2022-09-29T10:59:55;98586.22;;;17.92;83.09
4022;BME280;2025;48.260;16.432;2022-09-29T11:02:28;98582.94;;;17.85;100.00
4022;BME280;2025;48.260;16.432;2022-09-29T11:04:59;98590.41;;;17.98;100.00
4022;BME280;2025;48.260;16.432;2022-09-29T11:07:27;98579.63;;;18.66;100.00
4022;BME280;2025;48.260;16.432;2022-09-29T11:09:57;98590.59;;;18.15;89.46
4022;BME280;2025;48.260;16.432;2022-09-29T11:12:27;98586.66;;;19.28;90.37
4022;BME280;2025;48.260;16.432;2022-09-29T11:14:56;98589.97;;;20.63;85.00
4022;BME280;2025;48.260;16.432;2022-09-29T11:17:24;98592.47;;;21.01;69.16
4022;BME280;2025;48.260;16.432;2022-09-29T11:19:53;98582.16;;;20.95;72.18
4022;BME280;2025;48.260;16.432;2022-09-29T11:22:54;98599.53;;;21.52;69.12
4022;BME280;2025;48.260;16.432;2022-09-29T11:25:51;98586.13;;;19.00;68.00
4022;BME280;2025;48.260;16.432;2022-09-29T11:28:40;98582.06;;;19.52;79.98
4022;BME280;2025;48.260;16.432;2022-09-29T11:31:24;98566.56;;;20.70;73.46
4022;BME280;2025;48.260;16.432;2022-09-29T11:34:03;98555.03;;;21.70;71.07
4022;BME280;2025;48.260;16.432;2022-09-29T11:36:40;98556.84;;;19.79;76.53
4022;BME280;2025;48.260;16.432;2022-09-29T11:39:31;98556.63;;;21.41;79.62
4022;BME280;2025;48.260;16.432;2022-09-29T11:42:14;98553.97;;;21.57;66.02
4022;BME280;2025;48.260;16.432;2022-09-29T11:44:56;98559.94;;;21.29;70.22
4022;BME280;2025;48.260;16.432;2022-09-29T11:47:42;98559.13;;;19.49;72.80
4022;BME280;2025;48.260;16.432;2022-09-29T11:50:26;98567.91;;;19.12;78.56
4022;BME280;2025;48.260;16.432;2022-09-29T11:53:11;98562.75;;;19.67;74.30
4022;BME280;2025;48.260;16.432;2022-09-29T11:56:12;98557.09;;;18.76;78.17
4022;BME280;2025;48.260;16.432;2022-09-29T11:58:52;98550.69;;;19.01;81.50
4022;BME280;2025;48.260;16.432;2022-09-29T12:01:35;98550.28;;;19.49;78.09
4022;BME280;2025;48.260;16.432;2022-09-29T12:04:19;98561.94;;;19.07;75.34
4022;BME280;2025;48.260;16.432;2022-09-29T12:06:55;98565.94;;;20.65;63.30
4022;BME280;2025;48.260;16.432;2022-09-29T12:09:49;98560.13;;;18.87;75.58
4022;BME280;2025;48.260;16.432;2022-09-29T12:12:27;98564.78;;;18.40;86.22
4022;BME280;2025;48.260;16.432;2022-09-29T12:15:17;98577.31;;;17.48;88.99
4022;BME280;2025;48.260;16.432;2022-09-29T12:17:49;98578.53;;;17.14;90.44
4022;BME280;2025;48.260;16.432;2022-09-29T12:20:21;98572.34;;;17.85;100.00
4022;BME280;2025;48.260;16.432;2022-09-29T12:22:49;98581.50;;;18.42;92.35
4022;BME280;2025;48.260;16.432;2022-09-29T12:25:20;98570.88;;;18.00;90.87
4022;BME280;2025;48.260;16.432;2022-09-29T12:27:52;98570.72;;;18.47;92.90
4022;BME280;2025;48.260;16.432;2022-09-29T12:30:24;98564.84;;;18.39;91.54
4022;BME280;2025;48.260;16.432;2022-09-29T12:32:57;98560.22;;;18.44;81.16
4022;BME280;2025;48.260;16.432;2022-09-29T12:35:33;98568.47;;;18.99;86.44
4022;BME280;2025;48.260;16.432;2022-09-29T12:38:10;98567.41;;;19.23;77.17
4022;BME280;2025;48.260;16.432;2022-09-29T12:40:45;98572.47;;;18.26;84.28
4022;BME280;2025;48.260;16.432;2022-09-29T12:43:16;98564.53;;;18.46;87.46
4022;BME280;2025;48.260;16.432;2022-09-29T12:45:50;98563.59;;;18.05;87.78
4022;BME280;2025;48.260;16.432;2022-09-29T12:48:31;98565.44;;;17.81;91.81
4022;BME280;2025;48.260;16.432;2022-09-29T12:51:07;98562.00;;;18.43;86.95
4022;BME280;2025;48.260;16.432;2022-09-29T12:53:50;98558.03;;;18.11;87.50
4022;BME280;2025;48.260;16.432;2022-09-29T12:56:26;98550.47;;;18.44;86.85
4022;BME280;2025;48.260;16.432;2022-09-29T12:59:01;98547.38;;;17.91;84.75
4022;BME280;2025;48.260;16.432;2022-09-29T13:01:33;98550.19;;;18.30;93.66
4022;BME280;2025;48.260;16.432;2022-09-29T13:04:39;98543.81;;;17.47;91.29
4022;BME280;2025;48.260;16.432;2022-09-29T13:07:42;98537.22;;;18.02;89.68
4022;BME280;2025;48.260;16.432;2022-09-29T13:10:44;98542.13;;;18.53;91.57
4022;BME280;2025;48.260;16.432;2022-09-29T13:16:34;98542.34;;;18.89;77.81
4022;BME280;2025;48.260;16.432;2022-09-29T13:19:30;98545.75;;;16.70;95.79
4022;BME280;2025;48.260;16.432;2022-09-29T13:22:29;98559.22;;;16.87;97.09
4022;BME280;2025;48.260;16.432;2022-09-29T13:25:05;98544.91;;;16.93;100.00
4022;BME280;2025;48.260;16.432;2022-09-29T13:27:36;98547.19;;;17.50;92.59
4022;BME280;2025;48.260;16.432;2022-09-29T13:30:12;98552.47;;;17.27;94.05
4022;BME280;2025;48.260;16.432;2022-09-29T13:32:43;98560.69;;;17.44;95.59
4022;BME280;2025;48.260;16.432;2022-09-29T13:35:13;98568.56;;;18.35;91.00
4022;BME280;2025;48.260;16.432;2022-09-29T13:37:49;98572.09;;;18.13;92.54
4022;BME280;2025;48.260;16.432;2022-09-29T13:40:20;98559.69;;;19.37;81.69